»·PEaware :: DAL2339 KSLC-KSEA

DAL2339 :: KSLC-KSEA

FLIGHT INFORMATION

Flight Status: Arrived
Operator:
Delta Air Lines
More flights by this operator :: More flights under this callsign
Pilot: Joe P. (13940)
Aircraft: BOEING 737-800
(B738)
More flights by this aircraft type
Origin: KSLC Salt Lake City Intl
United States
Destination: KSEA Seattle-Tacoma Intl
United States
More flights between these airports :: More routes between these airports
Route: TWF4 TWF J15 BOI J163 BKE DCT PDT CHINS2
File this flight plan on PilotEdge
Remarks: SEL / ABCD KPDX -PBN / A1B1C1D1L1O1S1 NAV / RNVD1E2A1 DOF / 180101 REG / N389DA EET / KZSE0100 RVR / 200
Altitude:
(Current/Filed)
340ft
Speed:
(Current/Filed)
424kts
Departed: 01-Jan-18 08:08 AM
Arrived: 01-Jan-18 09:57 AM
Distance/Time
Traveled:
597nm/1:49
Distance/Time
To Go:
Arrived

Flight Plot

Page will automatically refresh every two minutes.

Flight plan parsing failed; only flown route is shown


Map Options




Map Legend


Flown Route
Filed Route
Departure Airport
Arrival Airport
Navaid (VOR, NDB)
Fix

Horizontal Profiles

Position Reports

Time Latitude Longitude Heading Altitude Ground
Speed
01-Jan-18 07:09 40.787386 -111.981147 284 4235ft 0kts
01-Jan-18 07:10 40.787386 -111.981147 284 4235ft 0kts
01-Jan-18 07:11 40.787386 -111.981147 284 4235ft 0kts
01-Jan-18 07:12 40.787386 -111.981147 284 4235ft 0kts
01-Jan-18 07:13 40.787386 -111.981147 284 4235ft 0kts
01-Jan-18 07:14 40.787386 -111.981147 284 4235ft 0kts
01-Jan-18 07:15 40.787386 -111.981147 284 4235ft 0kts
01-Jan-18 07:16 40.787386 -111.981147 284 4235ft 0kts
01-Jan-18 07:17 40.787386 -111.981147 284 4235ft 0kts
01-Jan-18 07:18 40.787386 -111.981147 284 4235ft 0kts
01-Jan-18 07:19 40.787386 -111.981147 284 4235ft 0kts
01-Jan-18 07:20 40.787386 -111.981147 284 4235ft 0kts
01-Jan-18 07:21 40.787386 -111.981147 284 4235ft 0kts
01-Jan-18 07:22 40.787386 -111.981147 284 4235ft 0kts
01-Jan-18 07:23 40.787386 -111.981147 284 4235ft 0kts
01-Jan-18 07:24 40.787386 -111.981147 284 4235ft 0kts
01-Jan-18 07:25 40.787386 -111.981147 284 4235ft 0kts
01-Jan-18 07:26 40.787386 -111.981147 284 4235ft 0kts
01-Jan-18 07:27 40.787386 -111.981147 284 4235ft 0kts
01-Jan-18 07:28 40.787386 -111.981147 284 4235ft 0kts
01-Jan-18 07:29 40.787386 -111.981147 284 4235ft 0kts
01-Jan-18 07:30 40.787386 -111.981147 284 4235ft 0kts
01-Jan-18 07:31 40.787386 -111.981147 284 4235ft 0kts
01-Jan-18 07:32 40.787386 -111.981147 284 4235ft 0kts
01-Jan-18 07:33 40.787386 -111.981147 284 4235ft 0kts
01-Jan-18 07:34 40.787386 -111.981147 284 4235ft 0kts
01-Jan-18 07:35 40.787386 -111.981147 284 4235ft 0kts
01-Jan-18 07:36 40.787386 -111.981147 284 4235ft 0kts
01-Jan-18 07:37 40.787386 -111.981147 284 4235ft 0kts
01-Jan-18 07:38 40.787386 -111.981147 284 4235ft 0kts
01-Jan-18 07:39 40.787386 -111.981147 284 4235ft 0kts
01-Jan-18 07:40 40.787386 -111.981147 284 4235ft 0kts
01-Jan-18 07:41 40.787386 -111.981147 284 4235ft 0kts
01-Jan-18 07:42 40.787386 -111.981147 284 4235ft 0kts
01-Jan-18 07:43 40.787386 -111.981147 284 4235ft 0kts
01-Jan-18 07:44 40.787386 -111.981147 284 4235ft 0kts
01-Jan-18 07:45 40.787386 -111.981147 284 4235ft 0kts
01-Jan-18 07:46 40.787386 -111.981147 284 4234ft 0kts
01-Jan-18 07:47 40.787386 -111.981147 284 4234ft 0kts
01-Jan-18 07:48 40.787386 -111.981147 284 4234ft 0kts
01-Jan-18 07:49 40.787386 -111.981147 284 4234ft 0kts
01-Jan-18 07:50 40.787386 -111.981147 284 4234ft 0kts
01-Jan-18 07:51 40.787386 -111.981147 284 4234ft 0kts
01-Jan-18 07:52 40.787386 -111.981147 284 4234ft 0kts
01-Jan-18 07:53 40.787386 -111.981147 284 4234ft 0kts
01-Jan-18 07:54 40.787386 -111.981147 284 4234ft 0kts
01-Jan-18 07:55 40.787386 -111.981147 284 4234ft 0kts
01-Jan-18 07:56 40.787342 -111.980919 284 4234ft 2kts
01-Jan-18 07:57 40.787163 -111.980004 284 4234ft 0kts
01-Jan-18 07:58 40.787162 -111.980000 284 4234ft 0kts
01-Jan-18 07:59 40.787162 -111.980000 284 4234ft 0kts
01-Jan-18 08:00 40.787162 -111.980000 284 4234ft 0kts
01-Jan-18 08:01 40.787162 -111.980000 284 4234ft 0kts
01-Jan-18 08:02 40.787162 -111.980000 284 4234ft 0kts
01-Jan-18 08:03 40.787162 -111.980000 284 4234ft 0kts
01-Jan-18 08:04 40.787163 -111.980002 284 4234ft 0kts
01-Jan-18 08:05 40.787163 -111.980004 284 4234ft 0kts
01-Jan-18 08:06 40.787163 -111.980004 284 4234ft 0kts
01-Jan-18 08:07 40.788248 -111.980134 14 4234ft 16kts
01-Jan-18 08:08 40.789759 -111.977603 116 4234ft 12kts
01-Jan-18 08:09 40.784670 -111.976526 174 4234ft 23kts
01-Jan-18 08:10 40.778772 -111.975414 169 4234ft 20kts
01-Jan-18 08:11 40.777115 -111.975202 178 4234ft 10kts
01-Jan-18 08:12 40.774879 -111.973528 54 4234ft 13kts
01-Jan-18 08:13 40.775672 -111.973230 352 4234ft 2kts
01-Jan-18 08:14 40.808683 -111.977725 348 5167ft 191kts
01-Jan-18 08:15 40.840406 -112.032505 292 7436ft 233kts
01-Jan-18 08:16 40.866592 -112.121621 290 9766ft 280kts
01-Jan-18 08:17 40.897234 -112.222248 297 12289ft 318kts
01-Jan-18 08:18 40.965639 -112.304589 322 14843ft 346kts
01-Jan-18 08:19 41.040194 -112.388582 316 17505ft 358kts
01-Jan-18 08:20 41.120980 -112.469179 325 19901ft 372kts
01-Jan-18 08:21 41.207785 -112.547212 319 22056ft 382kts
01-Jan-18 08:22 41.291047 -112.638851 312 23967ft 392kts
01-Jan-18 08:23 41.358223 -112.736857 310 25552ft 400kts
01-Jan-18 08:24 41.419764 -112.828014 309 26825ft 408kts
01-Jan-18 08:25 41.419764 -112.828014 309 26825ft 408kts
01-Jan-18 08:26 41.419764 -112.828014 309 26825ft 408kts
01-Jan-18 08:27 41.419764 -112.828014 309 26825ft 408kts
01-Jan-18 08:28 41.466611 -112.899702 309 27740ft 413kts
01-Jan-18 08:29 41.537085 -113.007988 309 28945ft 421kts
01-Jan-18 08:30 41.613569 -113.125985 309 30537ft 418kts
01-Jan-18 08:31 41.689530 -113.242593 309 32047ft 414kts
01-Jan-18 08:32 41.764734 -113.358754 309 33500ft 410kts
01-Jan-18 08:33 41.838952 -113.474027 309 34409ft 412kts
01-Jan-18 08:34 41.913142 -113.589770 309 34412ft 407kts
01-Jan-18 08:35 41.987107 -113.705610 309 34410ft 407kts
01-Jan-18 08:36 42.060611 -113.821227 309 34405ft 407kts
01-Jan-18 08:37 42.134072 -113.937222 309 34403ft 407kts
01-Jan-18 08:38 42.207699 -114.053924 309 34401ft 407kts
01-Jan-18 08:39 42.280990 -114.170389 309 34401ft 407kts
01-Jan-18 08:40 42.354201 -114.287076 309 34400ft 407kts
01-Jan-18 08:41 42.427286 -114.404631 309 34400ft 407kts
01-Jan-18 08:42 42.500426 -114.521545 310 34400ft 407kts
01-Jan-18 08:43 42.575046 -114.636901 310 34403ft 407kts
01-Jan-18 08:44 42.649390 -114.752635 310 34407ft 407kts
01-Jan-18 08:45 42.723964 -114.868933 310 34409ft 408kts
01-Jan-18 08:46 42.798595 -114.985105 310 34419ft 408kts
01-Jan-18 08:47 42.872937 -115.101701 310 34427ft 408kts
01-Jan-18 08:48 42.947333 -115.218986 310 34438ft 408kts
01-Jan-18 08:49 43.021346 -115.336180 310 34450ft 408kts
01-Jan-18 08:50 43.095245 -115.453685 310 34466ft 408kts
01-Jan-18 08:51 43.169210 -115.571773 310 34472ft 408kts
01-Jan-18 08:52 43.242703 -115.689592 310 34473ft 407kts
01-Jan-18 08:53 43.316036 -115.807635 310 34474ft 406kts
01-Jan-18 08:54 43.389491 -115.925834 310 34475ft 406kts
01-Jan-18 08:55 43.462370 -116.044284 309 34477ft 407kts
01-Jan-18 08:56 43.535213 -116.163276 309 34479ft 406kts
01-Jan-18 08:57 43.617114 -116.270782 317 34482ft 406kts
01-Jan-18 08:58 43.701585 -116.374206 317 34494ft 406kts
01-Jan-18 08:59 43.785858 -116.477999 317 34502ft 406kts
01-Jan-18 09:00 43.870721 -116.582194 317 34518ft 407kts
01-Jan-18 09:01 43.955224 -116.686478 317 34530ft 407kts
01-Jan-18 09:02 44.039915 -116.791608 317 34539ft 404kts
01-Jan-18 09:03 44.123499 -116.895838 317 34543ft 405kts
01-Jan-18 09:04 44.207141 -117.000586 317 34540ft 404kts
01-Jan-18 09:05 44.290917 -117.105929 317 34529ft 404kts
01-Jan-18 09:06 44.374405 -117.211336 317 34514ft 406kts
01-Jan-18 09:07 44.457932 -117.317219 317 34497ft 405kts
01-Jan-18 09:08 44.541323 -117.423362 317 34482ft 405kts
01-Jan-18 09:09 44.625015 -117.530052 317 34474ft 405kts
01-Jan-18 09:10 44.708243 -117.636746 316 34470ft 405kts
01-Jan-18 09:11 44.791497 -117.744300 316 34469ft 405kts
01-Jan-18 09:12 44.874422 -117.851557 316 34469ft 404kts
01-Jan-18 09:13 44.957103 -117.958873 316 34469ft 404kts
01-Jan-18 09:14 45.039835 -118.066811 316 34464ft 407kts
01-Jan-18 09:15 45.123146 -118.175507 317 34461ft 406kts
01-Jan-18 09:16 45.206044 -118.283765 316 34453ft 405kts
01-Jan-18 09:17 45.288661 -118.392419 316 34443ft 405kts
01-Jan-18 09:18 45.371395 -118.501774 316 34434ft 405kts
01-Jan-18 09:19 45.453724 -118.611077 316 34452ft 405kts
01-Jan-18 09:20 45.536139 -118.720483 316 34482ft 405kts
01-Jan-18 09:21 45.561348 -118.754233 316 34497ft 405kts
01-Jan-18 09:22 45.642659 -118.863547 316 34542ft 406kts
01-Jan-18 09:23 45.722929 -118.977608 310 34563ft 407kts
01-Jan-18 09:24 45.795529 -119.101906 310 34586ft 407kts
01-Jan-18 09:25 45.868377 -119.226428 310 34608ft 408kts
01-Jan-18 09:26 45.941534 -119.351051 310 34613ft 409kts
01-Jan-18 09:27 46.015213 -119.476038 310 34624ft 408kts
01-Jan-18 09:28 46.088000 -119.601011 310 34633ft 408kts
01-Jan-18 09:29 46.160694 -119.726846 309 34636ft 409kts
01-Jan-18 09:30 46.233619 -119.853204 309 34632ft 409kts
01-Jan-18 09:31 46.305859 -119.978858 309 34624ft 409kts
01-Jan-18 09:32 46.378688 -120.106372 309 34286ft 408kts
01-Jan-18 09:33 46.451221 -120.233516 309 31599ft 408kts
01-Jan-18 09:34 46.522108 -120.359100 309 29472ft 397kts
01-Jan-18 09:35 46.590025 -120.483259 305 27431ft 387kts
01-Jan-18 09:36 46.650323 -120.610917 304 25426ft 380kts
01-Jan-18 09:37 46.709858 -120.736401 304 23433ft 375kts
01-Jan-18 09:38 46.768493 -120.860737 304 21450ft 370kts
01-Jan-18 09:39 46.826539 -120.984065 304 19476ft 365kts
01-Jan-18 09:40 46.883038 -121.104702 304 18062ft 346kts
01-Jan-18 09:41 46.936777 -121.218683 304 16513ft 335kts
01-Jan-18 09:42 46.989185 -121.331374 304 14943ft 331kts
01-Jan-18 09:43 47.039519 -121.440342 304 14078ft 307kts
01-Jan-18 09:44 47.084748 -121.538175 304 13023ft 282kts
01-Jan-18 09:45 47.128533 -121.633097 304 11423ft 277kts
01-Jan-18 09:46 47.141623 -121.734491 253 10570ft 272kts
01-Jan-18 09:47 47.117712 -121.839066 255 9582ft 268kts
01-Jan-18 09:48 47.096769 -121.944147 255 8730ft 266kts
01-Jan-18 09:49 47.076770 -122.044982 254 8001ft 245kts
01-Jan-18 09:50 47.057638 -122.139426 254 7254ft 240kts
01-Jan-18 09:51 47.038394 -122.233541 253 6606ft 239kts
01-Jan-18 09:52 47.019393 -122.326169 253 5956ft 236kts
01-Jan-18 09:53 47.050704 -122.380565 24 5277ft 218kts
01-Jan-18 09:54 47.102004 -122.343083 23 4653ft 201kts
01-Jan-18 09:55 47.154550 -122.316958 17 4011ft 197kts
01-Jan-18 09:56 47.206760 -122.309369 359 3995ft 186kts
01-Jan-18 09:57 47.256739 -122.309491 1 3574ft 166kts
01-Jan-18 09:58 47.299158 -122.309160 1 2810ft 145kts
01-Jan-18 09:59 47.339851 -122.308808 1 2092ft 144kts
01-Jan-18 10:00 47.378810 -122.308469 0 1398ft 137kts
01-Jan-18 10:01 47.416686 -122.308138 0 723ft 135kts
01-Jan-18 10:02 47.452638 -122.307816 357 441ft 98kts
01-Jan-18 10:03 47.459695 -122.306287 152 441ft 5kts
01-Jan-18 10:04 47.459498 -122.306191 171 441ft 0kts
01-Jan-18 10:05 47.459497 -122.306191 171 441ft 0kts
01-Jan-18 10:06 47.457953 -122.306154 180 441ft 2kts
01-Jan-18 10:07 47.456215 -122.306218 180 441ft 10kts
01-Jan-18 10:08 47.450828 -122.306286 180 441ft 17kts
01-Jan-18 10:09 47.447526 -122.306246 179 441ft 5kts
01-Jan-18 10:10 47.443589 -122.306281 180 441ft 21kts
01-Jan-18 10:11 47.439056 -122.306245 180 441ft 8kts
01-Jan-18 10:12 47.436940 -122.304389 91 441ft 14kts
01-Jan-18 10:13 47.438047 -122.303177 28 441ft 0kts
01-Jan-18 10:14 47.438048 -122.303176 28 441ft 0kts
01-Jan-18 10:15 47.438048 -122.303176 28 441ft 0kts
01-Jan-18 10:16 47.438048 -122.303176 28 441ft 0kts
01-Jan-18 10:17 47.438048 -122.303176 28 441ft 0kts

Navigation Log

Ident Type
Flight plan parsing failed, navigation log unavailable